createdAt,value
2022-10-21T04:00:32.140Z,14.36
2022-10-21T04:01:32.140Z,14.29
2022-10-21T04:02:32.068Z,14.32
2022-10-21T04:03:32.057Z,14.29
2022-10-21T04:04:32.046Z,14.27
2022-10-21T04:05:32.069Z,14.25
2022-10-21T04:06:32.020Z,14.21
2022-10-21T04:07:32.011Z,14.28
2022-10-21T04:08:32.065Z,14.25
2022-10-21T04:09:31.994Z,14.28
2022-10-21T04:10:31.985Z,14.25
2022-10-21T04:11:37.013Z,14.24
2022-10-21T04:12:31.955Z,14.35
2022-10-21T04:13:31.947Z,14.32
2022-10-21T04:14:31.933Z,14.33
2022-10-21T04:15:31.929Z,14.32
2022-10-21T04:16:31.969Z,14.33
2022-10-21T04:17:31.903Z,14.32
2022-10-21T04:18:31.910Z,14.24
2022-10-21T04:19:31.880Z,14.37
2022-10-21T04:20:31.865Z,14.21
2022-10-21T04:21:31.864Z,14.29
2022-10-21T04:22:37.104Z,14.29
2022-10-21T04:23:31.832Z,14.32
2022-10-21T04:24:31.835Z,14.25
2022-10-21T04:25:31.808Z,14.24
2022-10-21T04:26:31.804Z,14.36
2022-10-21T04:27:31.791Z,14.22
2022-10-21T04:28:31.775Z,14.35
2022-10-21T04:29:31.763Z,14.32
2022-10-21T04:30:31.751Z,14.28
2022-10-21T04:31:32.363Z,14.29
2022-10-21T04:32:31.754Z,14.27
2022-10-21T04:33:36.745Z,14.24
2022-10-21T04:34:31.707Z,14.27
2022-10-21T04:35:31.694Z,14.35
2022-10-21T04:36:31.698Z,14.35
2022-10-21T04:37:31.681Z,14.29
2022-10-21T04:38:31.658Z,14.29
2022-10-21T04:39:31.651Z,14.27
2022-10-21T04:40:31.640Z,14.21
2022-10-21T04:41:31.636Z,14.35
2022-10-21T04:42:31.617Z,14.29
2022-10-21T04:43:31.602Z,14.17
2022-10-21T04:44:36.624Z,14.24
2022-10-21T04:45:31.594Z,14.17
2022-10-21T04:46:31.580Z,14.24
2022-10-21T04:47:31.557Z,14.21
2022-10-21T04:48:31.566Z,14.27
2022-10-21T04:49:31.535Z,14.22
2022-10-21T04:50:31.526Z,14.27
2022-10-21T04:52:31.502Z,14.29
2022-10-21T04:53:31.489Z,14.28
2022-10-21T04:54:31.534Z,14.24
2022-10-21T04:55:36.491Z,14.24
2022-10-21T04:56:31.468Z,14.25
2022-10-21T04:57:31.479Z,14.25
2022-10-21T04:58:31.431Z,14.28
2022-10-21T04:59:31.430Z,14.32
2022-10-21T05:00:31.409Z,14.27
2022-10-21T05:01:31.494Z,14.29
2022-10-21T05:02:31.393Z,14.27
2022-10-21T05:03:31.377Z,14.28
2022-10-21T05:04:31.386Z,14.24
2022-10-21T05:05:31.357Z,14.25
2022-10-21T05:06:36.392Z,14.27
2022-10-21T05:07:31.347Z,14.25
2022-10-21T05:08:31.363Z,14.28
2022-10-21T05:09:31.315Z,14.14
2022-10-21T05:10:31.303Z,14.22
2022-10-21T05:11:31.301Z,14.18
2022-10-21T05:12:31.328Z,14.15
2022-10-21T05:13:31.268Z,14.17
2022-10-21T05:14:31.251Z,14.21
2022-10-21T05:15:31.244Z,14.18
2022-10-21T05:16:31.247Z,14.14
2022-10-21T05:17:36.719Z,14.21
2022-10-21T05:18:31.210Z,14.14
2022-10-21T05:19:31.575Z,14.24
2022-10-21T05:20:31.227Z,14.15
2022-10-21T05:21:31.260Z,14.17
2022-10-21T05:22:31.191Z,14.18
2022-10-21T05:23:31.162Z,14.15
2022-10-21T05:24:31.148Z,14.15
2022-10-21T05:25:34.141Z,14.20
2022-10-21T05:26:31.129Z,14.17
2022-10-21T05:27:31.108Z,14.18
2022-10-21T05:28:36.116Z,14.18
2022-10-21T05:29:31.091Z,14.14
2022-10-21T05:30:31.130Z,14.17
2022-10-21T05:31:31.075Z,14.18
2022-10-21T05:32:31.060Z,14.15
2022-10-21T05:33:31.041Z,14.24
2022-10-21T05:34:31.036Z,14.18
2022-10-21T05:35:31.026Z,14.25
2022-10-21T05:36:31.048Z,14.28
2022-10-21T05:37:31.006Z,14.32
2022-10-21T05:38:31.005Z,14.36
2022-10-21T05:39:36.009Z,14.17
2022-10-21T05:40:30.965Z,14.25
2022-10-21T05:41:30.975Z,14.33
2022-10-21T05:42:30.945Z,14.28
2022-10-21T05:43:30.956Z,14.28
2022-10-21T05:44:30.918Z,14.24
2022-10-21T05:45:30.914Z,14.21
2022-10-21T05:46:30.910Z,14.32
2022-10-21T05:47:30.888Z,14.29
2022-10-21T05:48:30.873Z,14.28
2022-10-21T05:49:30.882Z,14.27
2022-10-21T05:50:35.878Z,14.25
2022-10-21T05:51:30.851Z,14.25
2022-10-21T05:52:30.849Z,14.20
2022-10-21T05:53:30.820Z,14.21
2022-10-21T05:54:30.811Z,14.18
2022-10-21T05:55:30.793Z,14.17
2022-10-21T05:56:30.802Z,14.22
2022-10-21T05:57:30.781Z,14.20
2022-10-21T05:58:30.767Z,14.18
2022-10-21T05:59:30.752Z,14.15
2022-10-21T06:00:30.736Z,14.21
2022-10-21T06:01:35.844Z,14.15
2022-10-21T06:02:30.716Z,14.25
2022-10-21T06:03:30.704Z,14.25
2022-10-21T06:04:33.793Z,14.22
2022-10-21T06:05:31.684Z,14.25
2022-10-21T06:06:30.682Z,14.32
2022-10-21T06:07:30.661Z,14.32
2022-10-21T06:08:30.734Z,14.29
2022-10-21T06:09:30.637Z,14.33
2022-10-21T06:10:30.623Z,14.29
2022-10-21T06:11:30.629Z,14.29
2022-10-21T06:12:35.622Z,14.33
2022-10-21T06:13:30.595Z,14.33
2022-10-21T06:14:30.578Z,14.36
2022-10-21T06:15:30.568Z,14.37
2022-10-21T06:16:30.566Z,14.32
2022-10-21T06:17:30.546Z,14.33
2022-10-21T06:18:30.533Z,14.35
2022-10-21T06:19:30.526Z,14.35
2022-10-21T06:20:30.530Z,14.29
2022-10-21T06:21:30.517Z,14.37
2022-10-21T06:22:30.532Z,14.42
2022-10-21T06:23:35.572Z,14.35
2022-10-21T06:24:30.481Z,14.42
2022-10-21T06:25:30.456Z,14.39
2022-10-21T06:26:33.239Z,14.43
2022-10-21T06:27:31.433Z,14.43
2022-10-21T06:28:30.429Z,14.40
2022-10-21T06:29:30.411Z,14.43
2022-10-21T06:30:30.408Z,14.40
2022-10-21T06:31:30.398Z,14.37
2022-10-21T06:32:30.395Z,14.46
2022-10-21T06:33:30.363Z,14.35
2022-10-21T06:34:35.413Z,14.43
2022-10-21T06:35:30.349Z,14.36
2022-10-21T06:36:30.359Z,14.39
2022-10-21T06:37:30.323Z,14.36
2022-10-21T06:38:30.309Z,14.42
2022-10-21T06:39:30.313Z,14.39
2022-10-21T06:40:30.283Z,14.39
2022-10-21T06:41:30.272Z,14.43
2022-10-21T06:42:30.282Z,14.55
2022-10-21T06:43:30.259Z,14.46
2022-10-21T06:44:30.240Z,14.52
2022-10-21T06:45:35.249Z,14.55
2022-10-21T06:46:30.219Z,14.51
2022-10-21T06:47:30.215Z,14.51
2022-10-21T06:48:30.219Z,14.55
2022-10-21T06:49:30.185Z,14.51
2022-10-21T06:50:30.181Z,14.47
2022-10-21T06:51:30.160Z,14.54
2022-10-21T06:52:30.168Z,14.58
2022-10-21T06:53:31.220Z,14.60
2022-10-21T06:54:30.130Z,14.64
2022-10-21T06:55:30.134Z,14.64
2022-10-21T06:56:35.126Z,14.65
2022-10-21T06:57:30.102Z,14.70
2022-10-21T06:58:30.082Z,14.64
2022-10-21T06:59:30.074Z,14.70
2022-10-21T07:01:41.421Z,14.72
2022-10-21T07:02:31.057Z,14.69
2022-10-21T07:03:30.022Z,14.65
2022-10-21T07:04:30.018Z,14.65
2022-10-21T07:05:30.007Z,14.65
2022-10-21T07:06:30.059Z,14.69
2022-10-21T07:07:35.045Z,14.73
2022-10-21T07:08:46.229Z,14.75
2022-10-21T07:09:31.041Z,14.75
2022-10-21T07:10:29.947Z,14.72
2022-10-21T07:11:29.949Z,14.70
2022-10-21T07:12:29.949Z,14.73
2022-10-21T07:13:29.912Z,14.80
2022-10-21T07:14:29.898Z,14.72
2022-10-21T07:15:29.886Z,14.72
2022-10-21T07:16:29.911Z,14.75
2022-10-21T07:17:29.878Z,14.72
2022-10-21T07:18:36.990Z,14.77
2022-10-21T07:19:29.844Z,14.84
2022-10-21T07:20:29.830Z,14.73
2022-10-21T07:21:29.936Z,14.77
2022-10-21T07:22:29.809Z,14.70
2022-10-21T07:23:29.795Z,14.78
2022-10-21T07:24:29.784Z,14.73
2022-10-21T07:25:29.776Z,14.75
2022-10-21T07:26:29.789Z,14.69
2022-10-21T07:27:29.770Z,14.77
2022-10-21T07:28:29.737Z,14.72
2022-10-21T07:29:34.750Z,14.73
2022-10-21T07:30:29.715Z,14.72
2022-10-21T07:31:29.721Z,14.72
2022-10-21T07:32:29.693Z,14.73
2022-10-21T07:33:29.681Z,14.72
2022-10-21T07:34:29.670Z,14.77
2022-10-21T07:35:29.678Z,14.70
2022-10-21T07:36:29.672Z,14.68
2022-10-21T07:37:29.633Z,14.77
2022-10-21T07:38:29.624Z,14.69
2022-10-21T07:39:29.610Z,14.73
2022-10-21T07:40:34.675Z,14.73
2022-10-21T07:41:29.598Z,14.72
2022-10-21T07:42:29.578Z,14.77
2022-10-21T07:43:29.585Z,14.81
2022-10-21T07:44:29.559Z,14.81
2022-10-21T07:45:29.543Z,14.77
2022-10-21T07:46:29.546Z,14.80
2022-10-21T07:47:29.530Z,14.69
2022-10-21T07:48:29.510Z,14.83
2022-10-21T07:49:29.498Z,14.80
2022-10-21T07:50:29.490Z,14.83
2022-10-21T07:51:34.506Z,14.84
2022-10-21T07:52:30.300Z,14.83
2022-10-21T07:53:29.450Z,14.78
2022-10-21T07:54:29.448Z,14.80
2022-10-21T07:55:29.433Z,14.94
2022-10-21T07:56:29.436Z,14.94
2022-10-21T07:57:29.404Z,14.92
2022-10-21T07:58:29.394Z,15.02
2022-10-21T07:59:29.413Z,14.81
2022-10-21T08:00:29.373Z,14.86
2022-10-21T08:01:29.602Z,14.99
2022-10-21T08:02:34.383Z,14.92
2022-10-21T08:03:29.339Z,14.84
2022-10-21T08:04:29.335Z,14.99
2022-10-21T08:05:29.312Z,14.99
2022-10-21T08:06:29.305Z,14.98
2022-10-21T08:07:29.304Z,14.91
2022-10-21T08:08:29.323Z,14.98
2022-10-21T08:09:29.267Z,14.94
2022-10-21T08:10:29.281Z,15.02
2022-10-21T08:11:29.246Z,15.01
2022-10-21T08:12:29.248Z,15.02
2022-10-21T08:13:34.256Z,15.07
2022-10-21T08:14:29.213Z,14.99
2022-10-21T08:15:29.225Z,14.96
2022-10-21T08:16:29.191Z,15.06
2022-10-21T08:17:29.192Z,15.07
2022-10-21T08:18:29.172Z,15.03
2022-10-21T08:19:29.194Z,15.01
2022-10-21T08:20:29.144Z,15.01
2022-10-21T08:21:29.136Z,15.14
2022-10-21T08:22:29.136Z,15.02
2022-10-21T08:23:29.115Z,15.02
2022-10-21T08:24:37.313Z,15.06
2022-10-21T08:25:30.095Z,15.01
2022-10-21T08:26:29.077Z,15.02
2022-10-21T08:27:29.076Z,15.09
2022-10-21T08:28:29.053Z,15.09
2022-10-21T08:29:29.045Z,15.10
2022-10-21T08:30:29.032Z,15.09
2022-10-21T08:31:29.037Z,15.07
2022-10-21T08:32:29.026Z,15.01
2022-10-21T08:33:28.998Z,15.07
2022-10-21T08:34:28.989Z,15.06
2022-10-21T08:35:34.005Z,15.11
2022-10-21T08:36:28.967Z,15.09
2022-10-21T08:37:28.961Z,15.10
2022-10-21T08:38:28.940Z,15.09
2022-10-21T08:39:28.926Z,15.09
2022-10-21T08:40:28.923Z,15.10
2022-10-21T08:41:28.907Z,15.10
2022-10-21T08:42:28.908Z,15.13
2022-10-21T08:43:28.886Z,15.16
2022-10-21T08:44:28.872Z,15.20
2022-10-21T08:45:28.858Z,15.21
2022-10-21T08:46:33.918Z,15.16
2022-10-21T08:47:28.848Z,15.11
2022-10-21T08:48:28.826Z,15.20
2022-10-21T08:49:30.851Z,15.13
2022-10-21T08:50:28.804Z,15.20
2022-10-21T08:51:28.792Z,15.25
2022-10-21T08:52:28.799Z,15.11
2022-10-21T08:53:28.770Z,15.17
2022-10-21T08:54:28.760Z,15.19
2022-10-21T08:55:28.769Z,15.20
2022-10-21T08:56:28.755Z,15.19
2022-10-21T08:57:33.762Z,15.27
2022-10-21T08:58:28.735Z,15.27
2022-10-21T08:59:28.708Z,15.19
2022-10-21T09:00:28.696Z,15.25
2022-10-21T09:01:28.932Z,15.28
2022-10-21T09:02:28.902Z,15.31
2022-10-21T09:03:28.659Z,15.29
2022-10-21T09:04:28.644Z,15.27
2022-10-21T09:05:28.636Z,15.23
2022-10-21T09:06:28.624Z,15.32
2022-10-21T09:07:28.653Z,15.28
2022-10-21T09:08:33.692Z,15.29
2022-10-21T09:09:28.607Z,15.21
2022-10-21T09:10:28.578Z,15.28
2022-10-21T09:11:28.645Z,15.34
2022-10-21T09:12:28.578Z,15.28
2022-10-21T09:13:28.543Z,15.21
2022-10-21T09:14:28.550Z,15.27
2022-10-21T09:15:28.539Z,15.27
2022-10-21T09:16:28.510Z,15.27
2022-10-21T09:17:28.514Z,15.28
2022-10-21T09:18:28.509Z,15.29
2022-10-21T09:19:33.496Z,15.23
2022-10-21T09:20:28.472Z,15.23
2022-10-21T09:21:28.474Z,15.28
2022-10-21T09:22:35.146Z,15.27
2022-10-21T09:23:29.514Z,15.28
2022-10-21T09:24:28.435Z,15.28
2022-10-21T09:25:28.438Z,15.28
2022-10-21T09:26:30.334Z,15.34
2022-10-21T09:27:37.900Z,15.31
2022-10-21T09:28:29.378Z,15.32
2022-10-21T09:29:28.366Z,15.43
2022-10-21T09:30:33.376Z,15.29
2022-10-21T09:31:28.343Z,15.29
2022-10-21T09:33:28.360Z,15.34
2022-10-21T09:34:28.329Z,15.29
2022-10-21T09:35:28.313Z,15.31
2022-10-21T09:36:28.340Z,15.31
2022-10-21T09:37:31.703Z,15.31
2022-10-21T09:38:29.264Z,15.31
2022-10-21T09:39:28.255Z,15.32
2022-10-21T09:40:28.246Z,15.21
2022-10-21T09:41:33.254Z,15.28
2022-10-21T09:42:46.888Z,15.36
2022-10-21T09:43:29.206Z,15.32
2022-10-21T09:44:28.201Z,15.31
2022-10-21T09:45:28.188Z,15.36
2022-10-21T09:46:28.191Z,15.28
2022-10-21T09:47:28.182Z,15.25
2022-10-21T09:48:29.175Z,15.29
2022-10-21T09:50:05.957Z,15.36
2022-10-21T09:50:29.249Z,15.34
2022-10-21T09:51:28.125Z,15.34
2022-10-21T09:52:33.154Z,15.34
2022-10-21T09:53:28.097Z,15.34
2022-10-21T09:54:28.095Z,15.36
2022-10-21T09:55:28.075Z,15.36
2022-10-21T09:56:28.065Z,15.31
2022-10-21T09:57:28.052Z,15.36
2022-10-21T09:58:28.054Z,15.34
2022-10-21T09:59:32.822Z,15.35
2022-10-21T10:00:29.034Z,15.35
2022-10-21T10:01:28.007Z,15.39
2022-10-21T10:02:28.061Z,15.39
2022-10-21T10:03:33.023Z,15.44
2022-10-21T10:04:27.975Z,15.35
2022-10-21T10:05:27.965Z,15.34
2022-10-21T10:06:28.052Z,15.43
2022-10-21T10:07:27.944Z,15.44
2022-10-21T10:08:28.172Z,15.31
2022-10-21T10:09:27.919Z,15.44
2022-10-21T10:10:27.914Z,15.38
2022-10-21T10:11:27.911Z,15.43
2022-10-21T10:12:27.887Z,15.39
2022-10-21T10:13:27.917Z,15.47
2022-10-21T10:14:32.885Z,15.44
2022-10-21T10:15:30.699Z,15.46
2022-10-21T10:16:27.845Z,15.51
2022-10-21T10:17:27.828Z,15.50
2022-10-21T10:18:27.829Z,15.51
2022-10-21T10:19:27.840Z,15.53
2022-10-21T10:20:27.794Z,15.49
2022-10-21T10:21:27.825Z,15.47
2022-10-21T10:22:27.830Z,15.54
2022-10-21T10:23:27.773Z,15.53
2022-10-21T10:24:27.771Z,15.57
2022-10-21T10:25:32.760Z,15.56
2022-10-21T10:26:27.749Z,15.57
2022-10-21T10:27:27.721Z,15.59
2022-10-21T10:28:27.723Z,15.59
2022-10-21T10:29:27.700Z,15.50
2022-10-21T10:30:27.682Z,15.64
2022-10-21T10:31:27.691Z,15.67
2022-10-21T10:32:27.665Z,15.54
2022-10-21T10:33:27.667Z,15.62
2022-10-21T10:34:27.636Z,15.62
2022-10-21T10:35:27.629Z,15.54
2022-10-21T10:36:32.640Z,15.64
2022-10-21T10:37:27.623Z,15.62
2022-10-21T10:38:27.703Z,15.62
2022-10-21T10:39:27.616Z,15.65
2022-10-21T10:40:27.572Z,15.64
2022-10-21T10:41:27.558Z,15.69
2022-10-21T10:42:27.551Z,15.67
2022-10-21T10:43:27.549Z,15.65
2022-10-21T10:44:27.547Z,15.69
2022-10-21T10:45:27.515Z,15.64
2022-10-21T10:46:27.503Z,15.65
2022-10-21T10:47:32.513Z,15.68
2022-10-21T10:48:27.479Z,15.69
2022-10-21T10:49:27.494Z,15.72
2022-10-21T10:50:27.465Z,15.80
2022-10-21T10:51:27.454Z,15.75
2022-10-21T10:52:27.435Z,15.86
2022-10-21T10:53:27.429Z,15.84
2022-10-21T10:54:27.541Z,15.83
2022-10-21T10:55:27.403Z,15.87
2022-10-21T10:56:27.390Z,15.84
2022-10-21T10:57:38.998Z,15.97
2022-10-21T10:58:33.532Z,15.94
2022-10-21T10:59:27.357Z,16.00
2022-10-21T11:00:27.370Z,15.97
2022-10-21T11:01:27.412Z,16.04
2022-10-21T11:02:27.325Z,16.02
2022-10-21T11:03:27.335Z,16.02
2022-10-21T11:04:27.302Z,16.14
2022-10-21T11:05:27.298Z,16.14
2022-10-21T11:06:27.284Z,16.09
2022-10-21T11:07:27.271Z,16.14
2022-10-21T11:08:29.718Z,16.24
2022-10-21T11:09:32.510Z,16.17
2022-10-21T11:10:27.234Z,16.14
2022-10-21T11:11:27.227Z,16.15
2022-10-21T11:12:27.212Z,16.21
2022-10-21T11:13:27.208Z,16.12
2022-10-21T11:14:27.205Z,16.27
2022-10-21T11:15:27.232Z,16.20
2022-10-21T11:16:27.168Z,16.30
2022-10-21T11:17:27.157Z,16.28
2022-10-21T11:18:27.147Z,16.21
2022-10-21T11:19:27.172Z,16.31
2022-10-21T11:20:32.144Z,16.23
2022-10-21T11:21:27.113Z,16.25
2022-10-21T11:22:27.105Z,16.28
2022-10-21T11:23:27.120Z,16.33
2022-10-21T11:24:27.091Z,16.31
2022-10-21T11:25:27.182Z,16.31
2022-10-21T11:26:27.060Z,16.43
2022-10-21T11:27:27.047Z,16.34
2022-10-21T11:28:27.032Z,16.38
2022-10-21T11:29:27.040Z,16.35
2022-10-21T11:30:27.015Z,16.34
2022-10-21T11:31:37.295Z,16.38
2022-10-21T11:32:27.995Z,16.34
2022-10-21T11:33:26.996Z,16.38
2022-10-21T11:34:26.999Z,16.39
2022-10-21T11:35:26.958Z,16.41
2022-10-21T11:36:26.965Z,16.34
2022-10-21T11:37:26.939Z,16.48
2022-10-21T11:38:26.927Z,16.49
2022-10-21T11:39:26.930Z,16.43
2022-10-21T11:40:26.899Z,16.35
2022-10-21T11:41:28.251Z,16.43
2022-10-21T11:42:31.903Z,16.48
2022-10-21T11:43:26.882Z,16.53
2022-10-21T11:44:29.344Z,16.50
2022-10-21T11:45:26.860Z,16.57
2022-10-21T11:46:26.832Z,16.61
2022-10-21T11:47:26.851Z,16.60
2022-10-21T11:48:26.808Z,16.61
2022-10-21T11:49:26.804Z,16.68
2022-10-21T11:50:26.806Z,16.64
2022-10-21T11:51:26.782Z,16.67
2022-10-21T11:52:26.769Z,16.71
2022-10-21T11:53:31.807Z,16.63
2022-10-21T11:54:26.755Z,16.70
2022-10-21T11:55:26.743Z,16.64
2022-10-21T11:56:26.723Z,16.79
2022-10-21T11:57:26.830Z,16.71
2022-10-21T11:58:26.698Z,16.66
2022-10-21T11:59:26.690Z,16.68
2022-10-21T12:00:26.738Z,16.64
2022-10-21T12:01:26.666Z,16.64
2022-10-21T12:02:26.751Z,16.57
2022-10-21T12:03:26.646Z,16.66
2022-10-21T12:04:31.659Z,16.60
2022-10-21T12:05:26.692Z,16.61
2022-10-21T12:06:26.609Z,16.60
2022-10-21T12:07:26.608Z,16.60
2022-10-21T12:09:26.594Z,16.67
2022-10-21T12:10:26.575Z,16.73
2022-10-21T12:11:26.554Z,16.71
2022-10-21T12:12:26.554Z,16.81
2022-10-21T12:13:26.644Z,16.85
2022-10-21T12:14:30.865Z,16.89
2022-10-21T12:15:31.549Z,16.93
2022-10-21T12:16:26.540Z,16.94
2022-10-21T12:17:26.548Z,17.01
2022-10-21T12:18:26.476Z,17.01
2022-10-21T12:19:26.469Z,17.06
2022-10-21T12:20:26.459Z,16.94
2022-10-21T12:21:26.457Z,17.07
2022-10-21T12:22:26.430Z,17.01
2022-10-21T12:23:26.419Z,17.11
2022-10-21T12:24:26.408Z,17.11
2022-10-21T12:25:26.409Z,16.97
2022-10-21T12:26:31.477Z,17.16
2022-10-21T12:27:26.428Z,17.15
2022-10-21T12:28:26.363Z,17.23
2022-10-21T12:29:26.467Z,17.21
2022-10-21T12:30:27.406Z,17.15
2022-10-21T12:31:26.343Z,17.23
2022-10-21T12:32:26.329Z,17.22
2022-10-21T12:33:26.309Z,17.30
2022-10-21T12:34:26.303Z,17.23
2022-10-21T12:35:26.309Z,17.18
2022-10-21T12:36:26.297Z,17.11
2022-10-21T12:37:31.288Z,17.16
2022-10-21T12:38:26.265Z,17.12
2022-10-21T12:39:26.243Z,17.14
2022-10-21T12:40:26.244Z,17.15
2022-10-21T12:41:26.256Z,17.14
2022-10-21T12:42:26.243Z,17.14
2022-10-21T12:43:26.198Z,17.14
2022-10-21T12:44:26.202Z,17.30
2022-10-21T12:45:26.197Z,17.19
2022-10-21T12:46:26.187Z,17.16
2022-10-21T12:47:26.155Z,17.15
2022-10-21T12:48:31.165Z,17.22
2022-10-21T12:49:26.157Z,17.16
2022-10-21T12:50:26.123Z,17.21
2022-10-21T12:51:26.111Z,17.22
2022-10-21T12:52:26.110Z,17.19
2022-10-21T12:53:26.094Z,17.14
2022-10-21T12:54:29.559Z,17.21
2022-10-21T12:55:26.076Z,17.16
2022-10-21T12:56:26.057Z,17.11
2022-10-21T12:57:26.056Z,17.16
2022-10-21T12:58:26.034Z,17.25
2022-10-21T12:59:31.045Z,17.21
2022-10-21T13:00:26.017Z,17.18
2022-10-21T13:01:26.101Z,17.21
2022-10-21T13:02:26.026Z,17.16
2022-10-21T13:03:25.995Z,17.14
2022-10-21T13:04:25.968Z,17.15
2022-10-21T13:05:25.958Z,17.19
2022-10-21T13:06:25.944Z,17.12
2022-10-21T13:07:25.965Z,17.18
2022-10-21T13:08:25.922Z,17.26
2022-10-21T13:09:25.946Z,17.23
2022-10-21T13:10:30.921Z,17.23
2022-10-21T13:11:25.897Z,17.34
2022-10-21T13:12:25.911Z,17.31
2022-10-21T13:13:25.887Z,17.33
2022-10-21T13:14:25.860Z,17.26
2022-10-21T13:15:25.851Z,17.23
2022-10-21T13:16:25.836Z,17.21
2022-10-21T13:17:25.847Z,17.19
2022-10-21T13:18:25.843Z,17.16
2022-10-21T13:19:25.804Z,17.15
2022-10-21T13:20:25.787Z,17.23
2022-10-21T13:21:30.799Z,17.25
2022-10-21T13:22:25.771Z,17.19
2022-10-21T13:23:25.767Z,17.18
2022-10-21T13:24:25.755Z,17.18
2022-10-21T13:25:25.734Z,17.19
2022-10-21T13:26:25.725Z,17.18
2022-10-21T13:27:25.766Z,17.19
2022-10-21T13:28:25.711Z,17.08
2022-10-21T13:29:25.699Z,17.18
2022-10-21T13:30:25.701Z,17.25
2022-10-21T13:31:25.691Z,17.22
2022-10-21T13:32:30.706Z,17.33
2022-10-21T13:33:25.725Z,17.26
2022-10-21T13:34:25.633Z,17.38
2022-10-21T13:35:25.623Z,17.41
2022-10-21T13:36:25.662Z,17.36
2022-10-21T13:37:25.604Z,17.36
2022-10-21T13:38:25.624Z,17.37
2022-10-21T13:39:25.579Z,17.41
2022-10-21T13:40:25.568Z,17.40
2022-10-21T13:41:25.582Z,17.37
2022-10-21T13:42:25.549Z,17.43
2022-10-21T13:43:30.893Z,17.38
2022-10-21T13:44:25.524Z,17.43
2022-10-21T13:45:25.511Z,17.43
2022-10-21T13:46:25.500Z,17.51
2022-10-21T13:47:25.496Z,17.49
2022-10-21T13:48:25.566Z,17.54
2022-10-21T13:49:25.466Z,17.51
2022-10-21T13:50:25.456Z,17.49
2022-10-21T13:51:25.444Z,17.54
2022-10-21T13:52:25.434Z,17.46
2022-10-21T13:53:25.423Z,17.59
2022-10-21T13:54:30.639Z,17.55
2022-10-21T13:55:25.399Z,17.51
2022-10-21T13:56:25.385Z,17.54
2022-10-21T13:57:25.378Z,17.51
2022-10-21T13:58:25.362Z,17.55
2022-10-21T13:59:25.386Z,17.52
2022-10-21T14:00:25.349Z,17.49
2022-10-21T14:01:25.474Z,17.55
2022-10-21T14:02:25.317Z,17.54
2022-10-21T14:03:25.322Z,17.56
2022-10-21T14:04:25.323Z,17.51
2022-10-21T14:05:30.317Z,17.40
2022-10-21T14:06:25.271Z,17.49
2022-10-21T14:07:25.265Z,17.44
2022-10-21T14:08:25.251Z,17.48
2022-10-21T14:09:25.259Z,17.49
2022-10-21T14:10:25.249Z,17.52
2022-10-21T14:11:25.219Z,17.54
2022-10-21T14:12:25.212Z,17.54
2022-10-21T14:13:25.204Z,17.48
2022-10-21T14:14:25.225Z,17.56
2022-10-21T14:15:25.172Z,17.56
2022-10-21T14:16:30.189Z,17.58
2022-10-21T14:17:25.150Z,17.56
2022-10-21T14:18:28.249Z,17.56
2022-10-21T14:19:25.139Z,17.59
2022-10-21T14:20:25.136Z,17.58
2022-10-21T14:21:25.114Z,17.62
2022-10-21T14:22:25.096Z,17.55
2022-10-21T14:23:25.104Z,17.72
2022-10-21T14:24:25.084Z,17.63
2022-10-21T14:25:25.072Z,17.59
2022-10-21T14:26:25.061Z,17.58
2022-10-21T14:27:30.107Z,17.63
2022-10-21T14:28:25.029Z,17.78
2022-10-21T14:29:25.018Z,17.58
2022-10-21T14:30:25.017Z,17.59
2022-10-21T14:31:25.005Z,17.62
2022-10-21T14:32:24.987Z,17.62
2022-10-21T14:33:24.975Z,17.62
2022-10-21T14:34:24.959Z,17.59
2022-10-21T14:35:24.962Z,17.58
2022-10-21T14:36:24.965Z,17.63
2022-10-21T14:37:24.932Z,17.59
2022-10-21T14:38:29.938Z,17.59
2022-10-21T14:39:24.905Z,17.55
2022-10-21T14:40:24.920Z,17.62
2022-10-21T14:41:24.886Z,17.54
2022-10-21T14:42:24.875Z,17.56
2022-10-21T14:43:24.903Z,17.54
2022-10-21T14:44:24.848Z,17.48
2022-10-21T14:45:24.855Z,17.48
2022-10-21T14:46:24.830Z,17.52
2022-10-21T14:47:24.827Z,17.49
2022-10-21T14:48:24.813Z,17.49
2022-10-21T14:49:29.817Z,17.40
2022-10-21T14:50:24.791Z,17.48
2022-10-21T14:51:24.804Z,17.41
2022-10-21T14:52:24.832Z,17.43
2022-10-21T14:53:24.806Z,17.44
2022-10-21T14:54:24.809Z,17.40
2022-10-21T14:55:24.739Z,17.46
2022-10-21T14:56:24.712Z,17.48
2022-10-21T14:57:24.743Z,17.41
2022-10-21T14:58:24.692Z,17.41
2022-10-21T14:59:24.694Z,17.43
2022-10-21T15:00:30.429Z,17.46
2022-10-21T15:01:24.659Z,17.43
2022-10-21T15:02:24.706Z,17.36
2022-10-21T15:03:24.691Z,17.37
2022-10-21T15:04:24.630Z,17.41
2022-10-21T15:05:24.644Z,17.38
2022-10-21T15:06:24.631Z,17.31
2022-10-21T15:07:24.595Z,17.38
2022-10-21T15:08:24.600Z,17.31
2022-10-21T15:09:24.569Z,17.38
2022-10-21T15:10:24.569Z,17.40
2022-10-21T15:11:29.572Z,17.37
2022-10-21T15:12:24.535Z,17.33
2022-10-21T15:13:24.522Z,17.34
2022-10-21T15:14:24.514Z,17.30
2022-10-21T15:15:24.522Z,17.34
2022-10-21T15:16:24.538Z,17.34
2022-10-21T15:17:24.633Z,17.34
2022-10-21T15:18:24.468Z,17.28
2022-10-21T15:19:24.457Z,17.19
2022-10-21T15:20:24.451Z,17.19
2022-10-21T15:21:24.447Z,17.19
2022-10-21T15:22:29.447Z,17.14
2022-10-21T15:23:24.418Z,17.16
2022-10-21T15:24:24.421Z,17.26
2022-10-21T15:25:24.438Z,17.23
2022-10-21T15:26:24.391Z,17.19
2022-10-21T15:27:24.375Z,17.22
2022-10-21T15:28:24.370Z,17.14
2022-10-21T15:29:24.344Z,17.14
2022-10-21T15:30:24.339Z,17.14
2022-10-21T15:31:24.336Z,17.18
2022-10-21T15:32:26.951Z,17.14
2022-10-21T15:33:30.324Z,17.14
2022-10-21T15:34:24.290Z,17.15
2022-10-21T15:35:24.308Z,17.16
2022-10-21T15:36:24.282Z,17.12
2022-10-21T15:37:24.255Z,17.12
2022-10-21T15:38:24.255Z,17.04
2022-10-21T15:39:24.234Z,16.97
2022-10-21T15:40:24.246Z,17.01
2022-10-21T15:41:24.226Z,17.01
2022-10-21T15:42:24.203Z,17.00
2022-10-21T15:43:24.198Z,16.97
2022-10-21T15:44:29.226Z,17.00
2022-10-21T15:45:24.171Z,17.04
2022-10-21T15:46:24.172Z,17.03
2022-10-21T15:47:24.146Z,16.98
2022-10-21T15:48:24.135Z,16.94
2022-10-21T15:49:24.132Z,16.94
2022-10-21T15:50:24.114Z,16.96
2022-10-21T15:51:24.116Z,16.97
2022-10-21T15:52:24.095Z,16.94
2022-10-21T15:53:24.087Z,16.94
2022-10-21T15:54:24.071Z,16.86
2022-10-21T15:55:29.098Z,16.88
2022-10-21T15:56:24.066Z,16.94
2022-10-21T15:57:24.036Z,16.93
2022-10-21T15:58:24.025Z,16.88
2022-10-21T15:59:24.013Z,16.88
2022-10-21T16:00:24.006Z,16.88
2022-10-21T16:01:24.090Z,16.89
2022-10-21T16:02:23.981Z,16.85
2022-10-21T16:03:23.970Z,16.91
2022-10-21T16:04:23.976Z,16.81
2022-10-21T16:05:23.948Z,16.81
2022-10-21T16:06:28.986Z,16.82
2022-10-21T16:07:23.927Z,16.83
2022-10-21T16:08:23.914Z,16.83
2022-10-21T16:09:24.005Z,16.79
2022-10-21T16:10:23.892Z,16.86
2022-10-21T16:11:34.722Z,16.83
2022-10-21T16:12:24.881Z,16.83
2022-10-21T16:13:23.887Z,16.81
2022-10-21T16:14:26.935Z,16.85
2022-10-21T16:15:23.835Z,16.82
2022-10-21T16:16:23.827Z,16.82
2022-10-21T16:17:28.857Z,16.85
2022-10-21T16:18:23.808Z,16.82
2022-10-21T16:19:23.791Z,16.79
2022-10-21T16:20:23.787Z,16.75
2022-10-21T16:21:23.771Z,16.73
2022-10-21T16:22:23.772Z,16.79
2022-10-21T16:23:23.751Z,16.82
2022-10-21T16:24:23.739Z,16.71
2022-10-21T16:25:23.724Z,16.67
2022-10-21T16:26:23.721Z,16.76
2022-10-21T16:27:43.441Z,16.82
2022-10-21T16:28:29.717Z,16.81
2022-10-21T16:29:23.683Z,16.78
2022-10-21T16:30:23.671Z,16.75
2022-10-21T16:31:23.663Z,16.73
2022-10-21T16:32:23.745Z,16.78
2022-10-21T16:33:23.637Z,16.76
2022-10-21T16:34:23.626Z,16.73
2022-10-21T16:35:23.614Z,16.75
2022-10-21T16:36:23.628Z,16.75
2022-10-21T16:37:23.599Z,16.73
2022-10-21T16:38:23.605Z,16.68
2022-10-21T16:39:28.593Z,16.79
2022-10-21T16:40:23.591Z,16.78
2022-10-21T16:41:23.545Z,16.75
2022-10-21T16:42:23.569Z,16.73
2022-10-21T16:43:23.542Z,16.67
2022-10-21T16:44:23.516Z,16.60
2022-10-21T16:45:23.500Z,16.68
2022-10-21T16:46:24.946Z,16.71
2022-10-21T16:47:23.491Z,16.71
2022-10-21T16:48:23.470Z,16.56
2022-10-21T16:49:23.465Z,16.60
2022-10-21T16:50:28.473Z,16.58
2022-10-21T16:51:23.434Z,16.56
2022-10-21T16:52:23.434Z,16.58
2022-10-21T16:53:23.411Z,16.60
2022-10-21T16:54:23.414Z,16.61
2022-10-21T16:55:23.400Z,16.60
2022-10-21T16:56:23.438Z,16.61